Time;durP1;ratioP1;P1;durP2;ratioP2;P2;SDS_P1;SDS_P2;PMS_P1;PMS_P2;Temp;Humidity;BMP_temperature;BMP_pressure;BME280_temperature;BME280_humidity;BME280_pressure;Samples;Min_cycle;Max_cycle;Signal;HPM_P1;HPM_P2
2021/11/22 00:02:23;;;;;;;23.02;17.80;;;;;;;;;;143734;588;46020;-57
2021/11/22 00:04:50;;;;;;;22.45;17.23;;;;;;;;;;143729;615;47020;-57
2021/11/22 00:07:18;;;;;;;23.25;17.92;;;;;;;;;;143730;591;47010;-58
2021/11/22 00:09:45;;;;;;;19.27;15.60;;;;;;;;;;143731;612;46020;-58
2021/11/22 00:12:13;;;;;;;21.02;17.92;;;;;;;;;;143733;600;47012;-58
2021/11/22 00:14:40;;;;;;;22.75;17.40;;;;;;;;;;143730;600;47022;-58
2021/11/22 00:17:07;;;;;;;24.90;21.37;;;;;;;;;;143728;592;47010;-57
2021/11/22 00:19:34;;;;;;;18.42;16.00;;;;;;;;;;143729;566;46021;-57
2021/11/22 00:22:02;;;;;;;19.87;15.60;;;;;;;;;;143735;604;46020;-56
2021/11/22 00:24:29;;;;;;;16.80;14.70;;;;;;;;;;143731;602;47021;-57
2021/11/22 00:26:56;;;;;;;19.00;16.00;;;;;;;;;;143727;576;47032;-57
2021/11/22 00:29:23;;;;;;;21.02;17.45;;;;;;;;;;143732;575;46020;-57
2021/11/22 00:31:52;;;;;;;23.30;14.93;;;;;;;;;;143731;596;47013;-57
2021/11/22 00:34:19;;;;;;;21.48;15.32;;;;;;;;;;143730;589;46023;-57
2021/11/22 00:36:47;;;;;;;20.02;15.70;;;;;;;;;;143731;578;47010;-57
2021/11/22 00:39:14;;;;;;;21.23;15.63;;;;;;;;;;143732;638;46020;-57
2021/11/22 00:41:41;;;;;;;17.87;14.40;;;;;;;;;;143733;603;46021;-58
2021/11/22 00:44:08;;;;;;;18.55;15.30;;;;;;;;;;143729;609;47020;-57
2021/11/22 00:46:36;;;;;;;20.92;16.62;;;;;;;;;;143731;613;46048;-57
2021/11/22 00:49:03;;;;;;;18.85;14.77;;;;;;;;;;143729;631;46021;-58
2021/11/22 00:51:31;;;;;;;16.58;13.43;;;;;;;;;;143733;587;47010;-56
2021/11/22 00:53:58;;;;;;;19.52;15.48;;;;;;;;;;143730;644;47021;-58
2021/11/22 00:56:27;;;;;;;20.83;16.95;;;;;;;;;;143734;595;46010;-58
2021/11/22 00:58:54;;;;;;;25.85;19.30;;;;;;;;;;143733;654;46020;-57
2021/11/22 01:01:22;;;;;;;22.92;19.52;;;;;;;;;;143734;589;46026;-58
2021/11/22 01:03:48;;;;;;;20.37;16.25;;;;;;;;;;143728;586;47023;-57
2021/11/22 01:06:15;;;;;;;22.37;17.27;;;;;;;;;;143728;586;47010;-58
2021/11/22 01:08:42;;;;;;;20.50;15.52;;;;;;;;;;143732;624;46020;-57
2021/11/22 01:11:09;;;;;;;24.42;20.02;;;;;;;;;;143735;621;46021;-57
2021/11/22 01:13:36;;;;;;;24.30;19.50;;;;;;;;;;143724;567;47022;-58
2021/11/22 01:16:03;;;;;;;23.12;20.12;;;;;;;;;;143728;651;47011;-58
2021/11/22 01:18:30;;;;;;;20.65;15.70;;;;;;;;;;143731;583;46021;-58
2021/11/22 01:20:57;;;;;;;22.00;17.83;;;;;;;;;;143733;573;46020;-58
2021/11/22 01:23:24;;;;;;;25.45;19.23;;;;;;;;;;143728;650;47022;-58
2021/11/22 01:25:51;;;;;;;23.80;17.55;;;;;;;;;;143729;579;47010;-58
2021/11/22 01:28:18;;;;;;;18.27;15.07;;;;;;;;;;143731;600;46020;-57
2021/11/22 01:30:45;;;;;;;25.40;16.48;;;;;;;;;;143732;582;46020;-58
2021/11/22 01:33:13;;;;;;;22.75;19.02;;;;;;;;;;143727;612;47023;-58
2021/11/22 01:35:42;;;;;;;26.60;18.75;;;;;;;;;;143728;625;47010;-58
2021/11/22 01:38:09;;;;;;;29.92;19.55;;;;;;;;;;143731;598;46020;-58
2021/11/22 01:40:37;;;;;;;31.65;20.60;;;;;;;;;;143732;621;46021;-57
2021/11/22 01:43:03;;;;;;;19.25;15.82;;;;;;;;;;143731;591;47020;-58
2021/11/22 01:45:33;;;;;;;26.10;15.60;;;;;;;;;;143728;564;47010;-58
2021/11/22 01:48:00;;;;;;;23.45;18.25;;;;;;;;;;143730;660;46021;-57
2021/11/22 01:50:28;;;;;;;22.83;16.65;;;;;;;;;;143734;580;46020;-57
2021/11/22 01:52:56;;;;;;;26.90;22.13;;;;;;;;;;143730;618;47029;-57
2021/11/22 01:55:25;;;;;;;23.92;18.27;;;;;;;;;;143728;599;47010;-57
2021/11/22 01:57:55;;;;;;;28.33;23.00;;;;;;;;;;143728;627;46020;-57
2021/11/22 02:00:32;;;;;;;23.00;19.48;;;;;;;;;;143732;570;46020;-58
2021/11/22 02:03:00;;;;;;;26.40;20.90;;;;;;;;;;143729;662;47020;-57
2021/11/22 02:05:28;;;;;;;27.45;22.67;;;;;;;;;;143729;566;47010;-58
2021/11/22 02:07:56;;;;;;;29.87;20.67;;;;;;;;;;143732;587;46020;-57
2021/11/22 02:10:23;;;;;;;22.58;18.23;;;;;;;;;;143733;618;47012;-57
2021/11/22 02:12:50;;;;;;;27.75;21.65;;;;;;;;;;143731;560;47020;-57
2021/11/22 02:15:18;;;;;;;28.77;22.23;;;;;;;;;;143725;622;47010;-57
2021/11/22 02:17:47;;;;;;;23.95;19.65;;;;;;;;;;143728;565;46021;-58
2021/11/22 02:20:26;;;;;;;26.25;20.75;;;;;;;;;;143731;590;46022;-58
2021/11/22 02:23:04;;;;;;;24.77;21.02;;;;;;;;;;143722;607;47022;-57
2021/11/22 02:25:33;;;;;;;21.95;16.95;;;;;;;;;;143728;607;47010;-57
2021/11/22 02:28:01;;;;;;;27.95;20.80;;;;;;;;;;143730;573;46020;-58
2021/11/22 02:30:34;;;;;;;24.85;19.85;;;;;;;;;;143735;564;46021;-59
2021/11/22 02:33:06;;;;;;;22.87;18.50;;;;;;;;;;143728;640;47020;-58
2021/11/22 02:35:35;;;;;;;20.67;16.45;;;;;;;;;;143726;580;46029;-58
2021/11/22 02:38:02;;;;;;;25.15;20.30;;;;;;;;;;143729;586;47021;-58
2021/11/22 02:40:29;;;;;;;22.92;18.90;;;;;;;;;;143730;604;46020;-59
2021/11/22 02:42:57;;;;;;;19.40;15.32;;;;;;;;;;143728;563;47022;-58
2021/11/22 02:45:24;;;;;;;27.55;20.02;;;;;;;;;;143731;571;46026;-57
2021/11/22 02:47:52;;;;;;;27.70;22.05;;;;;;;;;;143730;569;46020;-58
2021/11/22 02:50:20;;;;;;;24.37;18.80;;;;;;;;;;143732;658;46020;-59
2021/11/22 02:52:50;;;;;;;27.83;19.77;;;;;;;;;;143723;572;47029;-58
2021/11/22 02:55:18;;;;;;;28.02;19.73;;;;;;;;;;143731;621;46010;-58
2021/11/22 02:57:45;;;;;;;20.02;16.45;;;;;;;;;;143730;657;46020;-58
2021/11/22 03:00:27;;;;;;;28.05;23.83;;;;;;;;;;143733;616;46020;-57
2021/11/22 03:02:54;;;;;;;33.83;25.08;;;;;;;;;;143729;633;46023;-59
2021/11/22 03:05:23;;;;;;;35.90;26.10;;;;;;;;;;143730;569;47010;-58
2021/11/22 03:07:52;;;;;;;25.25;19.08;;;;;;;;;;143729;579;46020;-59
2021/11/22 03:10:20;;;;;;;43.13;27.95;;;;;;;;;;143733;574;47020;-59
2021/11/22 03:12:47;;;;;;;37.05;27.20;;;;;;;;;;143728;570;47022;-59
2021/11/22 03:15:17;;;;;;;41.92;27.37;;;;;;;;;;143727;648;47010;-59
2021/11/22 03:17:45;;;;;;;51.72;34.83;;;;;;;;;;143732;628;46020;-59
2021/11/22 03:20:16;;;;;;;61.65;35.88;;;;;;;;;;143731;599;46020;-59
2021/11/22 03:22:44;;;;;;;62.50;35.25;;;;;;;;;;143730;612;47021;-59
2021/11/22 03:25:13;;;;;;;49.80;27.87;;;;;;;;;;143729;654;47010;-59
2021/11/22 03:27:42;;;;;;;63.38;35.63;;;;;;;;;;143727;621;46020;-58
2021/11/22 03:30:11;;;;;;;60.12;34.33;;;;;;;;;;143729;657;46020;-58
2021/11/22 03:32:38;;;;;;;45.28;28.55;;;;;;;;;;143728;569;47020;-59
2021/11/22 03:35:06;;;;;;;45.47;28.48;;;;;;;;;;143730;572;47010;-59
2021/11/22 03:37:33;;;;;;;45.10;30.12;;;;;;;;;;143731;642;46020;-58
2021/11/22 03:40:02;;;;;;;43.67;29.63;;;;;;;;;;143728;655;47012;-58
2021/11/22 03:42:36;;;;;;;43.45;27.70;;;;;;;;;;143724;605;47022;-59
2021/11/22 03:45:06;;;;;;;54.10;33.10;;;;;;;;;;143728;585;47011;-59
2021/11/22 03:47:33;;;;;;;45.15;29.00;;;;;;;;;;143730;567;46021;-59
2021/11/22 03:50:00;;;;;;;50.92;31.55;;;;;;;;;;143728;619;46020;-58
2021/11/22 03:52:27;;;;;;;63.10;37.08;;;;;;;;;;143727;634;47029;-59
2021/11/22 03:54:54;;;;;;;61.33;36.03;;;;;;;;;;143729;589;47012;-58
2021/11/22 03:57:23;;;;;;;46.00;27.00;;;;;;;;;;143729;593;46020;-58
2021/11/22 03:59:50;;;;;;;52.45;30.73;;;;;;;;;;143728;680;47011;-57
2021/11/22 04:02:17;;;;;;;48.13;26.87;;;;;;;;;;143729;601;47023;-58
2021/11/22 04:04:44;;;;;;;56.22;30.08;;;;;;;;;;143725;572;47010;-57
2021/11/22 04:07:11;;;;;;;61.37;31.95;;;;;;;;;;143730;622;46021;-58
2021/11/22 04:09:38;;;;;;;59.17;32.22;;;;;;;;;;143733;613;46021;-58
2021/11/22 04:12:06;;;;;;;46.05;26.90;;;;;;;;;;143728;622;47020;-57
2021/11/22 04:14:33;;;;;;;40.17;23.75;;;;;;;;;;143729;589;47010;-58
2021/11/22 04:17:00;;;;;;;68.75;35.60;;;;;;;;;;143725;644;47020;-58
2021/11/22 04:19:27;;;;;;;63.10;35.45;;;;;;;;;;143726;579;46020;-59
2021/11/22 04:21:54;;;;;;;49.97;29.67;;;;;;;;;;143730;579;47028;-58
2021/11/22 04:24:21;;;;;;;49.55;31.42;;;;;;;;;;143731;585;47010;-59
2021/11/22 04:26:48;;;;;;;49.35;29.08;;;;;;;;;;143730;595;46020;-58
2021/11/22 04:29:15;;;;;;;48.63;29.90;;;;;;;;;;143733;582;46020;-58
2021/11/22 04:31:42;;;;;;;38.03;24.42;;;;;;;;;;143724;570;47023;-58
2021/11/22 04:34:09;;;;;;;38.80;24.10;;;;;;;;;;143724;580;47010;-57
2021/11/22 04:36:36;;;;;;;43.22;27.25;;;;;;;;;;143729;608;46020;-58
2021/11/22 04:39:03;;;;;;;44.63;30.60;;;;;;;;;;143736;569;46021;-58
2021/11/22 04:41:30;;;;;;;50.50;33.90;;;;;;;;;;143724;580;47020;-58
2021/11/22 04:43:58;;;;;;;52.83;33.65;;;;;;;;;;143725;564;47010;-59
2021/11/22 04:46:25;;;;;;;52.33;30.95;;;;;;;;;;143731;572;46021;-58
2021/11/22 04:48:52;;;;;;;44.65;26.58;;;;;;;;;;143733;570;46020;-58
2021/11/22 04:51:18;;;;;;;43.13;26.85;;;;;;;;;;143724;570;47049;-57
2021/11/22 04:53:45;;;;;;;38.60;27.55;;;;;;;;;;143726;583;47010;-58
2021/11/22 04:56:12;;;;;;;42.58;27.48;;;;;;;;;;143728;626;46020;-57
2021/11/22 04:58:39;;;;;;;44.53;28.98;;;;;;;;;;143734;573;46020;-59
2021/11/22 05:01:06;;;;;;;46.00;29.02;;;;;;;;;;143725;642;47023;-58
2021/11/22 05:03:34;;;;;;;50.50;35.08;;;;;;;;;;143730;570;46010;-59
2021/11/22 05:06:01;;;;;;;39.40;27.90;;;;;;;;;;143730;577;46020;-58
2021/11/22 05:08:28;;;;;;;49.25;32.25;;;;;;;;;;143734;569;46021;-59
2021/11/22 05:10:55;;;;;;;45.38;29.25;;;;;;;;;;143726;612;47020;-59
2021/11/22 05:13:22;;;;;;;39.83;27.08;;;;;;;;;;143724;589;47011;-58
2021/11/22 05:15:50;;;;;;;59.63;39.97;;;;;;;;;;143727;611;46021;-57
2021/11/22 05:18:17;;;;;;;60.00;39.22;;;;;;;;;;143729;623;46020;-57
2021/11/22 05:20:44;;;;;;;38.65;26.50;;;;;;;;;;143725;615;50020;-58
2021/11/22 05:23:13;;;;;;;70.43;55.50;;;;;;;;;;143723;621;47010;-57
2021/11/22 05:25:41;;;;;;;66.07;47.60;;;;;;;;;;143730;564;46020;-57
2021/11/22 05:28:08;;;;;;;48.58;35.38;;;;;;;;;;143733;590;46020;-58
2021/11/22 05:30:35;;;;;;;40.97;29.45;;;;;;;;;;143726;569;47020;-58
2021/11/22 05:33:04;;;;;;;47.92;35.63;;;;;;;;;;143730;574;47010;-58
2021/11/22 05:35:32;;;;;;;54.10;39.70;;;;;;;;;;143729;615;46020;-58
2021/11/22 05:37:59;;;;;;;46.13;31.90;;;;;;;;;;143734;566;46021;-59
2021/11/22 05:40:26;;;;;;;50.85;34.40;;;;;;;;;;143730;620;47022;-58
2021/11/22 05:42:54;;;;;;;38.50;27.20;;;;;;;;;;143724;575;47010;-58
2021/11/22 05:45:22;;;;;;;50.83;37.30;;;;;;;;;;143731;615;46021;-58
2021/11/22 05:47:49;;;;;;;39.65;29.35;;;;;;;;;;143734;597;46020;-58
2021/11/22 05:50:18;;;;;;;57.15;38.15;;;;;;;;;;143729;635;47022;-59
2021/11/22 05:52:50;;;;;;;53.65;37.20;;;;;;;;;;143728;571;47011;-57
2021/11/22 05:55:30;;;;;;;60.95;45.97;;;;;;;;;;143731;632;46020;-57
2021/11/22 05:57:57;;;;;;;56.35;42.30;;;;;;;;;;143735;587;46020;-57
2021/11/22 06:00:24;;;;;;;65.30;44.72;;;;;;;;;;143726;579;47020;-58
2021/11/22 06:02:51;;;;;;;51.97;34.60;;;;;;;;;;143731;619;47010;-57
2021/11/22 06:05:18;;;;;;;42.88;29.77;;;;;;;;;;143729;564;46020;-58
2021/11/22 06:07:45;;;;;;;49.95;33.58;;;;;;;;;;143732;579;46021;-58
2021/11/22 06:10:13;;;;;;;39.50;28.77;;;;;;;;;;143729;585;47022;-57
2021/11/22 06:12:40;;;;;;;49.25;32.83;;;;;;;;;;143730;661;47010;-58
2021/11/22 06:15:07;;;;;;;52.05;34.47;;;;;;;;;;143726;569;46021;-58
2021/11/22 06:17:35;;;;;;;40.47;31.02;;;;;;;;;;143729;613;46020;-58
2021/11/22 06:20:03;;;;;;;47.95;37.80;;;;;;;;;;143729;648;47022;-58
2021/11/22 06:22:30;;;;;;;60.28;46.42;;;;;;;;;;143728;599;47010;-57
2021/11/22 06:24:57;;;;;;;52.20;35.95;;;;;;;;;;143728;636;46020;-57
2021/11/22 06:27:25;;;;;;;38.45;29.02;;;;;;;;;;143734;575;46020;-57
2021/11/22 06:29:52;;;;;;;52.35;38.33;;;;;;;;;;143727;609;47020;-57
2021/11/22 06:32:19;;;;;;;61.20;42.90;;;;;;;;;;143729;657;47010;-57
2021/11/22 06:34:47;;;;;;;90.90;68.15;;;;;;;;;;143729;571;46019;-58
2021/11/22 06:37:14;;;;;;;73.68;54.70;;;;;;;;;;143735;597;46021;-58
2021/11/22 06:39:41;;;;;;;63.17;45.17;;;;;;;;;;143727;565;47020;-56
2021/11/22 06:42:08;;;;;;;57.83;42.20;;;;;;;;;;143730;574;47010;-56
2021/11/22 06:44:36;;;;;;;67.87;51.65;;;;;;;;;;143728;571;46021;-56
2021/11/22 06:47:04;;;;;;;52.95;40.33;;;;;;;;;;143736;645;46020;-56
2021/11/22 06:49:31;;;;;;;45.42;31.73;;;;;;;;;;143727;575;47020;-55
2021/11/22 06:51:58;;;;;;;39.67;30.60;;;;;;;;;;143729;722;47011;-56
2021/11/22 06:54:26;;;;;;;49.90;38.67;;;;;;;;;;143731;603;46020;-56
2021/11/22 06:56:53;;;;;;;50.22;34.15;;;;;;;;;;143732;584;47012;-55
2021/11/22 06:59:20;;;;;;;54.95;36.15;;;;;;;;;;143725;567;47023;-56
2021/11/22 07:01:47;;;;;;;47.25;34.55;;;;;;;;;;143725;583;47010;-56
2021/11/22 07:04:14;;;;;;;66.30;43.75;;;;;;;;;;143729;566;46020;-56
2021/11/22 07:06:41;;;;;;;67.78;45.53;;;;;;;;;;143735;594;46021;-56
2021/11/22 07:09:08;;;;;;;61.85;42.55;;;;;;;;;;143729;564;47022;-56
2021/11/22 07:11:35;;;;;;;58.33;39.70;;;;;;;;;;143728;569;47010;-55
2021/11/22 07:14:04;;;;;;;50.17;36.10;;;;;;;;;;143731;684;46020;-54
2021/11/22 07:16:32;;;;;;;53.67;34.72;;;;;;;;;;143735;643;46020;-55
2021/11/22 07:18:59;;;;;;;48.72;34.40;;;;;;;;;;143732;569;47020;-55
2021/11/22 07:21:26;;;;;;;48.53;33.22;;;;;;;;;;143725;570;47010;-55
2021/11/22 07:23:53;;;;;;;66.00;40.10;;;;;;;;;;143732;575;46020;-55
2021/11/22 07:26:21;;;;;;;67.95;47.17;;;;;;;;;;143733;610;46020;-55
2021/11/22 07:28:48;;;;;;;59.20;41.70;;;;;;;;;;143727;586;48021;-55
2021/11/22 07:31:15;;;;;;;52.25;33.83;;;;;;;;;;143729;578;47010;-56
2021/11/22 07:33:42;;;;;;;53.08;34.72;;;;;;;;;;143732;612;46020;-55
2021/11/22 07:36:09;;;;;;;70.03;47.03;;;;;;;;;;143734;595;46021;-55
2021/11/22 07:38:36;;;;;;;96.55;50.63;;;;;;;;;;143731;626;47023;-54
2021/11/22 07:41:04;;;;;;;88.93;57.70;;;;;;;;;;143731;579;47010;-54
2021/11/22 07:43:31;;;;;;;95.30;62.25;;;;;;;;;;143732;564;46020;-54
2021/11/22 07:45:59;;;;;;;95.22;60.65;;;;;;;;;;143736;579;46020;-54
2021/11/22 07:48:26;;;;;;;83.05;57.00;;;;;;;;;;143728;583;47022;-55
2021/11/22 07:50:53;;;;;;;89.60;50.05;;;;;;;;;;143730;565;47010;-54
2021/11/22 07:53:20;;;;;;;56.63;40.00;;;;;;;;;;143730;627;46020;-54
2021/11/22 07:55:47;;;;;;;62.13;39.05;;;;;;;;;;143731;657;46020;-54
2021/11/22 07:58:14;;;;;;;51.95;35.75;;;;;;;;;;143730;629;47022;-54
2021/11/22 08:00:42;;;;;;;51.47;39.53;;;;;;;;;;143731;598;47020;-54
2021/11/22 08:03:09;;;;;;;52.25;38.60;;;;;;;;;;143732;669;46020;-54
2021/11/22 08:05:36;;;;;;;56.65;34.42;;;;;;;;;;143735;787;46021;-55
2021/11/22 08:08:03;;;;;;;43.78;30.45;;;;;;;;;;143727;573;47020;-54
2021/11/22 08:10:31;;;;;;;37.75;29.12;;;;;;;;;;143731;609;47010;-54
2021/11/22 08:13:00;;;;;;;46.53;30.77;;;;;;;;;;143734;592;46021;-55
2021/11/22 08:15:29;;;;;;;37.00;27.52;;;;;;;;;;143728;599;47012;-54
2021/11/22 08:17:59;;;;;;;41.72;27.27;;;;;;;;;;143731;829;47022;-54
2021/11/22 08:20:26;;;;;;;35.03;26.40;;;;;;;;;;143730;838;47010;-54
2021/11/22 08:22:53;;;;;;;52.42;28.60;;;;;;;;;;143730;569;46020;-55
2021/11/22 08:25:23;;;;;;;36.45;26.23;;;;;;;;;;143734;629;46020;-55
2021/11/22 08:27:53;;;;;;;35.80;26.40;;;;;;;;;;143728;609;47022;-55
2021/11/22 08:30:22;;;;;;;31.52;24.58;;;;;;;;;;143732;581;46012;-54
2021/11/22 08:32:50;;;;;;;38.80;27.05;;;;;;;;;;143733;569;46020;-55
2021/11/22 08:35:18;;;;;;;37.28;24.77;;;;;;;;;;143734;585;47012;-54
2021/11/22 08:37:47;;;;;;;29.30;23.17;;;;;;;;;;143728;610;47023;-55
2021/11/22 08:40:17;;;;;;;47.53;33.92;;;;;;;;;;143732;571;47010;-55
2021/11/22 08:42:45;;;;;;;54.13;35.80;;;;;;;;;;143731;603;46020;-55
2021/11/22 08:45:13;;;;;;;51.25;35.38;;;;;;;;;;143733;648;47020;-56
2021/11/22 08:47:40;;;;;;;49.92;36.55;;;;;;;;;;143728;567;47020;-55
2021/11/22 08:50:09;;;;;;;45.75;30.02;;;;;;;;;;143731;596;46021;-56
2021/11/22 08:52:36;;;;;;;38.60;28.80;;;;;;;;;;143731;580;46020;-55
2021/11/22 08:55:05;;;;;;;40.65;30.23;;;;;;;;;;143733;569;46020;-55
2021/11/22 08:57:32;;;;;;;47.20;31.70;;;;;;;;;;143732;581;47020;-56
2021/11/22 08:59:59;;;;;;;36.08;27.33;;;;;;;;;;143732;680;47010;-55
2021/11/22 09:02:26;;;;;;;32.53;25.05;;;;;;;;;;143730;622;46022;-55
2021/11/22 09:04:53;;;;;;;35.58;28.77;;;;;;;;;;143734;607;46018;-56
2021/11/22 09:07:20;;;;;;;33.60;25.37;;;;;;;;;;143728;630;47022;-55
2021/11/22 09:09:47;;;;;;;37.30;27.35;;;;;;;;;;143731;565;47010;-56
2021/11/22 09:12:14;;;;;;;40.47;27.67;;;;;;;;;;143731;583;46020;-55
2021/11/22 09:14:41;;;;;;;31.65;23.95;;;;;;;;;;143736;601;46020;-56
2021/11/22 09:17:08;;;;;;;34.22;25.52;;;;;;;;;;143725;615;47020;-55
2021/11/22 09:19:36;;;;;;;32.47;23.70;;;;;;;;;;143731;564;47010;-55
2021/11/22 09:22:03;;;;;;;33.45;24.87;;;;;;;;;;143732;592;46020;-55
2021/11/22 09:24:30;;;;;;;32.08;24.42;;;;;;;;;;143729;603;46020;-55
2021/11/22 09:26:57;;;;;;;37.38;27.17;;;;;;;;;;143727;564;47031;-56
2021/11/22 09:29:24;;;;;;;33.50;25.48;;;;;;;;;;143731;626;47010;-56
2021/11/22 09:31:51;;;;;;;38.58;30.33;;;;;;;;;;143731;631;46020;-56
2021/11/22 09:34:18;;;;;;;36.15;26.85;;;;;;;;;;143734;601;46020;-56
2021/11/22 09:36:47;;;;;;;54.15;38.45;;;;;;;;;;143728;569;47020;-56
2021/11/22 09:39:15;;;;;;;56.28;42.08;;;;;;;;;;143728;601;47010;-56
2021/11/22 09:41:44;;;;;;;53.08;37.80;;;;;;;;;;143734;610;46020;-56
2021/11/22 09:44:11;;;;;;;65.00;48.10;;;;;;;;;;143738;651;46020;-56
2021/11/22 09:46:38;;;;;;;58.53;39.92;;;;;;;;;;143732;760;47020;-56
2021/11/22 09:49:08;;;;;;;57.58;39.55;;;;;;;;;;143731;582;47011;-56
2021/11/22 09:51:36;;;;;;;56.42;36.03;;;;;;;;;;143731;812;46020;-56
2021/11/22 09:54:04;;;;;;;49.83;32.72;;;;;;;;;;143732;573;46020;-56
2021/11/22 09:56:33;;;;;;;43.03;32.53;;;;;;;;;;143731;737;47021;-57
2021/11/22 09:59:00;;;;;;;46.72;30.92;;;;;;;;;;143730;598;47010;-57
2021/11/22 10:01:32;;;;;;;43.00;32.85;;;;;;;;;;143731;620;46020;-57
2021/11/22 10:04:14;;;;;;;44.97;29.73;;;;;;;;;;143729;567;46020;-56
2021/11/22 10:06:59;;;;;;;42.67;27.92;;;;;;;;;;143728;605;47020;-57
2021/11/22 10:09:52;;;;;;;44.42;32.28;;;;;;;;;;143731;595;47010;-57
2021/11/22 10:12:25;;;;;;;50.78;33.03;;;;;;;;;;143728;686;46021;-56
2021/11/22 10:14:58;;;;;;;40.70;30.08;;;;;;;;;;143737;609;46020;-56
2021/11/22 10:17:38;;;;;;;51.85;35.47;;;;;;;;;;143730;588;47020;-55
2021/11/22 10:20:23;;;;;;;57.67;40.78;;;;;;;;;;143729;603;47010;-55
2021/11/22 10:23:07;;;;;;;56.90;38.80;;;;;;;;;;143735;589;46022;-56
2021/11/22 10:25:40;;;;;;;55.67;36.53;;;;;;;;;;143735;573;47020;-56
2021/11/22 10:28:20;;;;;;;50.75;33.88;;;;;;;;;;143730;589;47020;-56
2021/11/22 10:30:52;;;;;;;45.90;30.58;;;;;;;;;;143730;578;47010;-57
2021/11/22 10:33:22;;;;;;;43.00;30.02;;;;;;;;;;143730;570;46020;-56
2021/11/22 10:35:53;;;;;;;39.60;28.58;;;;;;;;;;143734;570;46021;-56
2021/11/22 10:38:23;;;;;;;40.90;27.10;;;;;;;;;;143730;586;47022;-56
2021/11/22 10:40:54;;;;;;;39.35;25.45;;;;;;;;;;143732;611;47010;-56
2021/11/22 10:43:21;;;;;;;29.12;22.23;;;;;;;;;;143733;589;46021;-56
2021/11/22 10:45:51;;;;;;;31.33;22.30;;;;;;;;;;143736;588;46020;-56
2021/11/22 10:48:26;;;;;;;31.27;21.73;;;;;;;;;;143733;580;47021;-57
2021/11/22 10:51:15;;;;;;;30.08;22.13;;;;;;;;;;143733;612;47010;-56
2021/11/22 10:53:53;;;;;;;25.98;20.98;;;;;;;;;;143734;574;46020;-56
2021/11/22 10:56:27;;;;;;;30.62;20.50;;;;;;;;;;143736;592;46021;-56
2021/11/22 10:58:56;;;;;;;;;;;;;;;;;;143735;981;47023;-56
2021/11/22 11:01:30;;;;;;;24.92;19.80;;;;;;;;;;143738;594;47010;-56
2021/11/22 11:04:31;;;;;;;28.12;19.67;;;;;;;;;;143734;571;46020;-56
2021/11/22 11:07:01;;;;;;;26.75;17.48;;;;;;;;;;143737;604;46022;-56
2021/11/22 11:10:00;;;;;;;21.95;17.37;;;;;;;;;;143730;563;47020;-56
2021/11/22 11:12:28;;;;;;;18.30;14.85;;;;;;;;;;143729;591;46049;-56
2021/11/22 11:14:58;;;;;;;18.90;14.05;;;;;;;;;;143730;588;46020;-56
2021/11/22 11:17:38;;;;;;;15.57;12.77;;;;;;;;;;143735;613;46020;-56
2021/11/22 11:20:14;;;;;;;13.73;11.05;;;;;;;;;;143732;584;47023;-57
2021/11/22 11:22:42;;;;;;;17.65;12.10;;;;;;;;;;143731;599;47010;-57
2021/11/22 11:25:10;;;;;;;17.02;12.20;;;;;;;;;;143733;603;46020;-57
2021/11/22 11:27:40;;;;;;;15.35;12.18;;;;;;;;;;143736;602;47010;-57
2021/11/22 11:30:09;;;;;;;27.33;19.62;;;;;;;;;;143730;604;48020;-57
2021/11/22 11:32:37;;;;;;;18.23;11.88;;;;;;;;;;143732;564;47010;-57
2021/11/22 11:35:08;;;;;;;15.18;10.95;;;;;;;;;;143732;585;46021;-56
2021/11/22 11:38:10;;;;;;;21.15;15.27;;;;;;;;;;143736;601;46020;-56
2021/11/22 11:41:17;;;;;;;17.02;11.35;;;;;;;;;;143731;583;47021;-56
2021/11/22 11:44:50;;;;;;;14.43;10.75;;;;;;;;;;143730;577;47010;-57
2021/11/22 11:47:33;;;;;;;13.62;10.18;;;;;;;;;;143732;576;46020;-57
2021/11/22 11:50:18;;;;;;;18.52;12.10;;;;;;;;;;143735;570;46021;-57
2021/11/22 11:52:51;;;;;;;;;;;;;;;;;;143735;982;47022;-57
2021/11/22 11:55:18;;;;;;;21.90;15.82;;;;;;;;;;143738;622;46021;-58
2021/11/22 11:57:46;;;;;;;22.67;17.30;;;;;;;;;;143731;575;46020;-58
2021/11/22 12:00:27;;;;;;;22.77;15.95;;;;;;;;;;143734;627;46020;-58
2021/11/22 12:03:04;;;;;;;25.60;18.45;;;;;;;;;;143729;570;47021;-57
2021/11/22 12:05:47;;;;;;;17.70;11.85;;;;;;;;;;143731;599;46010;-58
2021/11/22 12:08:26;;;;;;;19.98;14.85;;;;;;;;;;143733;588;46020;-58
2021/11/22 12:10:59;;;;;;;15.93;12.23;;;;;;;;;;143734;784;47012;-58
2021/11/22 12:13:46;;;;;;;20.62;12.60;;;;;;;;;;143728;589;47023;-58
2021/11/22 12:16:45;;;;;;;23.38;15.05;;;;;;;;;;143730;592;47010;-58
2021/11/22 12:19:34;;;;;;;22.37;14.30;;;;;;;;;;143733;569;46023;-58
2021/11/22 12:22:16;;;;;;;16.48;10.48;;;;;;;;;;143733;564;46022;-58
2021/11/22 12:24:48;;;;;;;16.80;10.90;;;;;;;;;;143732;606;47022;-58
2021/11/22 12:27:35;;;;;;;18.00;13.45;;;;;;;;;;143723;581;48021;-58
2021/11/22 12:30:37;;;;;;;17.05;12.60;;;;;;;;;;143730;619;46020;-58
2021/11/22 12:33:43;;;;;;;18.33;13.43;;;;;;;;;;143734;590;47020;-58
2021/11/22 12:36:32;;;;;;;15.38;11.15;;;;;;;;;;143729;897;47024;-58
2021/11/22 12:39:08;;;;;;;17.55;13.62;;;;;;;;;;143728;663;47010;-57
2021/11/22 12:41:38;;;;;;;22.98;14.98;;;;;;;;;;143731;573;46021;-58
2021/11/22 12:44:11;;;;;;;25.92;15.20;;;;;;;;;;143734;843;46020;-57
2021/11/22 12:47:11;;;;;;;31.45;21.25;;;;;;;;;;143731;584;47020;-58
2021/11/22 12:49:44;;;;;;;25.60;16.62;;;;;;;;;;143729;603;47010;-58
2021/11/22 12:52:25;;;;;;;20.45;16.30;;;;;;;;;;143730;638;46022;-57
2021/11/22 12:55:11;;;;;;;25.15;16.65;;;;;;;;;;143735;612;46018;-58
2021/11/22 12:57:41;;;;;;;18.67;13.85;;;;;;;;;;143731;675;47023;-58
2021/11/22 13:00:20;;;;;;;13.95;10.52;;;;;;;;;;143732;620;46029;-58
2021/11/22 13:03:02;;;;;;;15.90;12.25;;;;;;;;;;143730;608;46020;-58
2021/11/22 13:05:51;;;;;;;18.73;13.77;;;;;;;;;;143732;566;47012;-57
2021/11/22 13:08:38;;;;;;;20.05;13.90;;;;;;;;;;143729;634;46916;-58
2021/11/22 13:11:17;;;;;;;22.30;12.85;;;;;;;;;;143728;567;47010;-58
2021/11/22 13:13:56;;;;;;;18.83;11.15;;;;;;;;;;143730;587;46020;-57
2021/11/22 13:16:23;;;;;;;15.77;12.40;;;;;;;;;;143733;730;47012;-58
2021/11/22 13:18:58;;;;;;;15.60;12.60;;;;;;;;;;143731;586;46047;-58
2021/11/22 13:21:42;;;;;;;14.63;11.15;;;;;;;;;;143731;591;47020;-58
2021/11/22 13:24:14;;;;;;;17.95;11.77;;;;;;;;;;143733;677;46020;-58
2021/11/22 13:26:43;;;;;;;17.27;10.95;;;;;;;;;;143730;815;46021;-58
2021/11/22 13:29:21;;;;;;;14.40;11.68;;;;;;;;;;143727;565;47022;-58
2021/11/22 13:31:51;;;;;;;12.93;10.15;;;;;;;;;;143730;709;47010;-58
2021/11/22 13:34:23;;;;;;;19.50;12.68;;;;;;;;;;143730;621;46021;-58
2021/11/22 13:36:51;;;;;;;15.85;10.82;;;;;;;;;;143732;590;47010;-58
2021/11/22 13:39:25;;;;;;;18.85;10.75;;;;;;;;;;143732;837;47022;-58
2021/11/22 13:42:09;;;;;;;17.80;13.80;;;;;;;;;;143732;635;46010;-58
2021/11/22 13:44:45;;;;;;;13.30;9.77;;;;;;;;;;143735;637;46020;-58
2021/11/22 13:47:24;;;;;;;19.08;13.18;;;;;;;;;;143736;838;46020;-58
2021/11/22 13:49:56;;;;;;;18.50;11.27;;;;;;;;;;143734;619;46023;-59
2021/11/22 13:52:25;;;;;;;21.23;10.65;;;;;;;;;;143735;576;45918;-59
2021/11/22 13:54:53;;;;;;;14.13;11.32;;;;;;;;;;143732;580;46021;-58
2021/11/22 13:57:23;;;;;;;16.52;11.43;;;;;;;;;;143737;620;46020;-58
2021/11/22 13:59:53;;;;;;;17.05;12.15;;;;;;;;;;143733;764;47020;-59
2021/11/22 14:02:24;;;;;;;16.67;11.48;;;;;;;;;;143735;772;45918;-58
2021/11/22 14:04:54;;;;;;;14.27;10.50;;;;;;;;;;143733;607;46020;-59
2021/11/22 14:07:47;;;;;;;13.55;11.68;;;;;;;;;;143734;635;46020;-58
2021/11/22 14:10:14;;;;;;;18.00;10.60;;;;;;;;;;143733;604;47021;-58
2021/11/22 14:12:41;;;;;;;16.77;10.88;;;;;;;;;;143727;571;47010;-58
2021/11/22 14:15:23;;;;;;;19.05;11.50;;;;;;;;;;143730;575;47020;-59
2021/11/22 14:17:51;;;;;;;15.00;11.23;;;;;;;;;;143738;611;46020;-59
2021/11/22 14:20:22;;;;;;;14.77;10.85;;;;;;;;;;143734;588;46048;-58
2021/11/22 14:22:54;;;;;;;13.93;11.60;;;;;;;;;;143732;578;46012;-59
2021/11/22 14:25:27;;;;;;;14.68;11.18;;;;;;;;;;143731;580;46021;-59
2021/11/22 14:27:57;;;;;;;16.17;11.63;;;;;;;;;;143737;593;46020;-59
2021/11/22 14:30:37;;;;;;;13.62;11.25;;;;;;;;;;143733;585;47020;-60
2021/11/22 14:33:29;;;;;;;15.85;11.63;;;;;;;;;;143733;623;46013;-59
2021/11/22 14:36:02;;;;;;;16.27;11.95;;;;;;;;;;143734;598;46022;-59
2021/11/22 14:38:42;;;;;;;13.88;10.43;;;;;;;;;;143736;611;46020;-59
2021/11/22 14:41:22;;;;;;;16.77;11.85;;;;;;;;;;143732;582;46023;-59